Time;durP1;ratioP1;P1;durP2;ratioP2;P2;SDS_P1;SDS_P2;PMS_P1;PMS_P2;Temp;Humidity;BMP_temperature;BMP_pressure;BME280_temperature;BME280_humidity;BME280_pressure;Samples;Min_cycle;Max_cycle;Signal;HPM_P1;HPM_P2
2022/12/08 00:01:25;;;;;;;54.72;37.95;;;20.60;62.10;;;;;;5057565;27;92916;-86
2022/12/08 00:03:54;;;;;;;49.83;35.90;;;20.60;62.10;;;;;;5058912;27;92341;-86
2022/12/08 00:09:26;;;;;;;50.15;35.80;;;20.50;62.00;;;;;;5055658;27;93492;-86
2022/12/08 00:11:56;;;;;;;50.03;35.58;;;20.50;62.20;;;;;;5057896;27;93276;-85
2022/12/08 00:14:24;;;;;;;52.10;36.58;;;20.50;62.30;;;;;;5058013;27;92507;-87
2022/12/08 00:16:50;;;;;;;49.30;35.60;;;20.50;62.30;;;;;;5056331;27;92610;-86
2022/12/08 00:19:16;;;;;;;50.88;35.92;;;20.50;62.50;;;;;;5058878;27;93220;-86
2022/12/08 00:21:41;;;;;;;51.65;36.20;;;20.50;62.40;;;;;;5057126;27;92782;-86
2022/12/08 00:24:07;;;;;;;48.13;34.55;;;20.50;62.30;;;;;;5055918;27;92438;-86
2022/12/08 00:26:33;;;;;;;49.53;34.05;;;20.40;62.30;;;;;;5056192;27;91701;-85
2022/12/08 00:28:58;;;;;;;47.40;33.45;;;20.40;62.40;;;;;;5036422;27;96446;-86
2022/12/08 00:31:24;;;;;;;49.22;34.80;;;20.40;62.30;;;;;;5056343;27;93233;-86
2022/12/08 00:33:50;;;;;;;48.85;35.60;;;20.40;62.30;;;;;;5056852;27;93211;-84
2022/12/08 00:36:15;;;;;;;49.55;34.88;;;20.40;62.30;;;;;;5038487;27;92599;-85
2022/12/08 00:38:43;;;;;;;49.47;34.45;;;20.40;62.40;;;;;;5057278;27;92593;-86
2022/12/08 00:41:15;;;;;;;47.60;33.05;;;20.40;62.30;;;;;;5056778;27;93356;-86
2022/12/08 00:43:41;;;;;;;49.63;35.40;;;20.40;62.40;;;;;;5057821;27;92375;-85
2022/12/08 00:46:06;;;;;;;44.25;32.90;;;20.30;62.30;;;;;;5058713;27;92337;-85
2022/12/08 00:48:32;;;;;;;45.63;32.65;;;20.30;62.20;;;;;;5056224;27;93462;-87
2022/12/08 00:50:58;;;;;;;48.30;34.00;;;20.30;62.20;;;;;;5056376;27;93262;-86
2022/12/08 00:53:23;;;;;;;50.03;33.70;;;20.30;62.20;;;;;;5044947;27;92765;-86
2022/12/08 00:55:49;;;;;;;45.00;32.88;;;20.30;62.10;;;;;;5057430;27;92555;-85
2022/12/08 00:58:15;;;;;;;48.13;33.35;;;20.30;62.20;;;;;;5054982;27;94621;-84
2022/12/08 01:00:42;;;;;;;46.42;33.17;;;20.20;62.60;;;;;;5056010;27;94492;-85
2022/12/08 01:03:11;;;;;;;44.85;32.83;;;20.20;62.30;;;;;;5056195;27;91975;-86
2022/12/08 01:05:38;;;;;;;42.63;31.67;;;20.20;62.20;;;;;;5055959;27;92292;-85
2022/12/08 01:08:07;;;;;;;46.17;33.60;;;20.20;62.20;;;;;;5055618;27;93509;-85
2022/12/08 01:10:36;;;;;;;;;;;20.20;62.50;;;;;;5056474;27;94623;-86
2022/12/08 01:13:02;;;;;;;44.45;31.30;;;20.20;62.30;;;;;;5057548;27;92292;-87
2022/12/08 01:15:27;;;;;;;40.63;30.98;;;20.20;62.40;;;;;;5057014;27;91774;-86
2022/12/08 01:17:53;;;;;;;42.28;30.50;;;20.20;62.30;;;;;;5057553;27;92081;-87
2022/12/08 01:20:18;;;;;;;43.60;31.20;;;20.20;62.50;;;;;;5055131;27;93749;-84
2022/12/08 01:22:44;;;;;;;43.08;30.48;;;20.10;62.30;;;;;;5057439;27;93371;-86
2022/12/08 01:25:10;;;;;;;43.53;30.92;;;20.10;62.30;;;;;;5057918;27;92624;-84
2022/12/08 01:27:35;;;;;;;44.35;31.65;;;20.10;62.20;;;;;;5054711;27;93656;-86
2022/12/08 01:30:01;;;;;;;42.65;31.33;;;20.10;62.30;;;;;;5055742;27;99722;-85
2022/12/08 01:32:26;;;;;;;40.33;29.45;;;20.10;62.50;;;;;;5056749;27;93554;-85
2022/12/08 01:34:52;;;;;;;42.60;30.77;;;20.10;62.50;;;;;;5056834;27;92405;-86
2022/12/08 01:37:17;;;;;;;40.67;29.33;;;20.10;62.50;;;;;;5057610;27;93621;-85
2022/12/08 01:39:43;;;;;;;44.42;30.33;;;20.10;62.60;;;;;;5056049;27;93082;-86
2022/12/08 01:42:20;;;;;;;41.70;29.50;;;20.10;62.70;;;;;;5060225;27;92383;-85
2022/12/08 01:44:50;;;;;;;43.47;31.00;;;20.00;62.40;;;;;;5059557;27;92307;-85
2022/12/08 01:47:16;;;;;;;41.47;30.50;;;20.00;62.60;;;;;;5059210;27;101719;-86
2022/12/08 01:49:44;;;;;;;43.42;30.73;;;20.00;62.40;;;;;;5051276;27;93341;-84
2022/12/08 01:52:30;;;;;;;42.30;30.83;;;20.00;62.50;;;;;;5039868;27;93404;-84
2022/12/08 01:55:09;;;;;;;36.67;28.23;;;20.00;62.60;;;;;;5057485;27;92480;-85
2022/12/08 01:57:55;;;;;;;;;;;20.00;62.60;;;;;;5052301;27;93578;-85
2022/12/08 02:00:22;;;;;;;39.95;29.52;;;20.00;62.50;;;;;;5061555;27;92582;-86
2022/12/08 02:02:53;;;;;;;39.80;29.25;;;20.00;62.50;;;;;;5060341;27;92696;-85
2022/12/08 02:05:21;;;;;;;41.00;29.13;;;20.00;62.40;;;;;;5059169;27;92112;-86
2022/12/08 02:07:48;;;;;;;40.20;29.63;;;20.00;62.60;;;;;;5060093;27;94223;-85
2022/12/08 02:10:18;;;;;;;38.13;28.00;;;20.00;62.50;;;;;;5060938;27;93458;-85
2022/12/08 02:12:44;;;;;;;38.88;27.83;;;20.00;62.50;;;;;;5057551;27;93590;-86
2022/12/08 02:15:10;;;;;;;38.10;27.33;;;19.90;62.50;;;;;;5040088;27;92772;-86
2022/12/08 02:18:30;;;;;;;37.72;26.95;;;20.00;62.50;;;;;;5059664;27;100891;-85
2022/12/08 02:21:09;;;;;;;38.25;27.75;;;19.90;62.40;;;;;;4998052;28;94024;-86
2022/12/08 02:23:38;;;;;;;;;;;19.90;62.50;;;;;;4999443;28;92661;-85
2022/12/08 02:26:06;;;;;;;37.45;28.63;;;19.90;62.40;;;;;;4997594;28;92547;-85
2022/12/08 02:29:01;;;;;;;36.75;26.25;;;19.90;62.40;;;;;;4995907;28;94068;-86
2022/12/08 02:31:45;;;;;;;35.83;26.55;;;19.90;62.50;;;;;;4998100;28;97482;-86
2022/12/08 02:34:30;;;;;;;37.00;26.05;;;19.90;62.40;;;;;;4996262;28;92499;-85
2022/12/08 02:37:20;;;;;;;37.63;27.10;;;19.90;62.20;;;;;;4998192;28;101026;-86
2022/12/08 02:40:19;;;;;;;35.03;25.98;;;19.90;62.20;;;;;;4994752;28;94930;-86
2022/12/08 02:42:59;;;;;;;35.40;26.20;;;19.90;62.20;;;;;;4994392;28;94086;-85
2022/12/08 02:45:31;;;;;;;35.55;25.90;;;19.80;62.10;;;;;;4978965;28;93017;-87
2022/12/08 02:47:58;;;;;;;38.10;26.52;;;19.80;62.40;;;;;;4995929;28;92869;-86
2022/12/08 02:50:23;;;;;;;35.22;26.15;;;19.80;62.20;;;;;;4996476;28;92597;-85
2022/12/08 02:52:49;;;;;;;32.15;25.08;;;19.80;62.30;;;;;;4992217;28;92935;-86
2022/12/08 02:55:27;;;;;;;35.03;25.88;;;19.80;62.30;;;;;;5026290;27;92523;-84
2022/12/08 02:57:56;;;;;;;35.53;26.40;;;19.80;62.20;;;;;;5037194;27;91528;-86
2022/12/08 03:00:26;;;;;;;35.58;26.00;;;19.80;62.20;;;;;;5035485;27;94864;-83
2022/12/08 03:03:22;;;;;;;32.75;24.42;;;19.80;62.30;;;;;;5035568;27;94747;-84
2022/12/08 03:05:57;;;;;;;32.75;24.20;;;19.80;62.20;;;;;;5037253;27;93425;-85
2022/12/08 03:08:48;;;;;;;34.92;25.70;;;19.80;62.60;;;;;;5035387;27;92263;-85
2022/12/08 03:11:20;;;;;;;35.60;26.55;;;19.80;62.60;;;;;;5036154;27;93727;-85
2022/12/08 03:13:51;;;;;;;34.15;24.60;;;19.70;62.70;;;;;;5036032;27;93422;-86
2022/12/08 03:16:26;;;;;;;32.95;24.60;;;19.80;62.50;;;;;;5037011;27;92297;-86
2022/12/08 03:19:08;;;;;;;34.58;24.80;;;19.70;62.50;;;;;;5036937;27;92449;-84
2022/12/08 03:21:34;;;;;;;34.65;25.25;;;19.70;62.60;;;;;;5036457;27;93897;-85
2022/12/08 03:24:03;;;;;;;32.55;24.10;;;19.70;62.70;;;;;;5036508;27;93373;-86
2022/12/08 03:26:42;;;;;;;34.00;24.80;;;19.70;62.70;;;;;;5036929;27;92349;-85
2022/12/08 03:29:08;;;;;;;;;;;19.70;62.50;;;;;;5037273;27;92456;-84
2022/12/08 03:31:39;;;;;;;36.13;25.67;;;19.70;62.30;;;;;;5039751;27;94317;-83
2022/12/08 03:34:05;;;;;;;33.53;24.42;;;19.70;62.60;;;;;;5037218;27;98676;-86
2022/12/08 03:36:31;;;;;;;33.15;24.05;;;19.70;62.70;;;;;;5001269;27;92663;-86
2022/12/08 03:38:57;;;;;;;33.38;23.95;;;19.70;62.30;;;;;;5036803;27;92721;-84
2022/12/08 03:41:23;;;;;;;32.10;23.05;;;19.70;62.60;;;;;;5040114;27;94067;-85
2022/12/08 03:43:52;;;;;;;30.48;22.98;;;19.70;62.40;;;;;;5038751;27;93877;-85
2022/12/08 03:46:19;;;;;;;31.42;22.77;;;19.70;62.50;;;;;;5038713;27;92616;-85
2022/12/08 03:48:45;;;;;;;31.13;23.05;;;19.70;62.50;;;;;;5037168;27;91596;-84
2022/12/08 03:51:11;;;;;;;32.92;23.25;;;19.60;62.40;;;;;;5035891;27;93162;-86
2022/12/08 03:53:37;;;;;;;33.28;23.73;;;19.60;62.40;;;;;;5035899;27;95087;-84
2022/12/08 03:56:04;;;;;;;31.13;23.40;;;19.60;62.40;;;;;;5036684;27;94625;-85
2022/12/08 03:58:30;;;;;;;31.00;23.67;;;19.60;62.40;;;;;;5036892;27;92257;-85
2022/12/08 04:00:56;;;;;;;28.90;21.92;;;19.60;62.30;;;;;;5036135;27;94940;-86
2022/12/08 04:03:21;;;;;;;28.38;22.02;;;19.60;62.30;;;;;;5002565;28;94184;-85
2022/12/08 04:05:47;;;;;;;31.73;23.67;;;19.60;62.40;;;;;;5003890;28;92524;-85
2022/12/08 04:08:13;;;;;;;28.52;20.98;;;19.60;62.40;;;;;;5003723;28;92546;-84
2022/12/08 04:10:38;;;;;;;30.40;21.92;;;19.60;62.40;;;;;;5005135;28;93391;-86
2022/12/08 04:13:04;;;;;;;29.45;22.42;;;19.60;62.20;;;;;;5005044;28;93601;-85
2022/12/08 04:15:29;;;;;;;29.60;22.25;;;19.60;62.30;;;;;;5003201;28;92731;-86
2022/12/08 04:17:55;;;;;;;28.73;21.88;;;19.60;62.30;;;;;;5003786;28;92233;-85
2022/12/08 04:20:21;;;;;;;29.10;21.33;;;19.60;62.30;;;;;;5001874;28;94056;-84
2022/12/08 04:22:46;;;;;;;31.13;22.50;;;19.60;62.30;;;;;;5003284;28;94015;-85
2022/12/08 04:25:12;;;;;;;29.55;23.10;;;19.60;62.20;;;;;;5004566;28;92794;-85
2022/12/08 04:27:37;;;;;;;28.75;21.65;;;19.50;63.00;;;;;;5003457;28;92673;-85
2022/12/08 04:30:03;;;;;;;28.65;21.67;;;19.50;62.20;;;;;;5002766;28;93366;-85
2022/12/08 04:32:29;;;;;;;27.15;20.75;;;19.50;62.20;;;;;;5003204;28;92911;-84
2022/12/08 04:34:55;;;;;;;26.83;20.48;;;19.50;62.10;;;;;;5026151;27;93164;-85
2022/12/08 04:37:20;;;;;;;27.88;21.02;;;19.50;62.10;;;;;;5037833;27;91772;-85
2022/12/08 04:39:46;;;;;;;27.90;21.17;;;19.50;62.10;;;;;;5035572;27;93999;-85
2022/12/08 04:42:11;;;;;;;30.35;22.42;;;19.50;62.00;;;;;;5037163;27;92783;-86
2022/12/08 04:44:37;;;;;;;23.95;18.98;;;19.50;61.90;;;;;;5036161;27;92906;-85
2022/12/08 04:47:03;;;;;;;27.35;19.67;;;19.50;62.20;;;;;;5035988;27;92079;-86
2022/12/08 04:49:28;;;;;;;27.67;20.90;;;19.50;62.20;;;;;;5036671;27;93758;-84
2022/12/08 04:51:54;;;;;;;26.92;19.90;;;19.50;62.20;;;;;;5035821;27;92899;-86
2022/12/08 04:54:20;;;;;;;24.33;19.65;;;19.50;62.40;;;;;;5034707;27;92352;-85
2022/12/08 04:56:45;;;;;;;27.20;20.60;;;19.50;62.10;;;;;;5035045;27;92810;-85
2022/12/08 04:59:11;;;;;;;27.42;21.25;;;19.50;62.30;;;;;;5035557;27;93352;-85
2022/12/08 05:01:36;;;;;;;26.33;20.50;;;19.40;62.90;;;;;;5037146;27;93074;-84
2022/12/08 05:04:02;;;;;;;27.02;20.15;;;19.40;62.10;;;;;;5034903;27;91978;-86
2022/12/08 05:06:28;;;;;;;27.13;19.50;;;19.40;62.20;;;;;;5036198;27;92286;-85
2022/12/08 05:08:53;;;;;;;26.08;19.65;;;19.40;62.20;;;;;;5033684;27;94855;-86
2022/12/08 05:11:19;;;;;;;27.38;20.05;;;19.40;61.90;;;;;;5034479;27;93345;-86
2022/12/08 05:13:45;;;;;;;27.10;20.05;;;19.40;62.00;;;;;;5035427;27;92553;-85
2022/12/08 05:16:13;;;;;;;26.60;19.48;;;19.40;62.10;;;;;;5039038;27;92416;-84
2022/12/08 05:18:40;;;;;;;25.97;20.10;;;19.40;62.20;;;;;;5004085;27;93117;-84
2022/12/08 05:21:07;;;;;;;25.75;19.08;;;19.40;62.10;;;;;;5059822;27;93502;-86
2022/12/08 05:23:32;;;;;;;27.48;19.70;;;19.40;62.10;;;;;;5059810;27;92029;-85
2022/12/08 05:26:06;;;;;;;26.25;19.73;;;19.30;62.00;;;;;;5060467;27;91319;-86
2022/12/08 05:28:32;;;;;;;24.92;19.00;;;19.30;61.90;;;;;;5059762;27;93215;-86
2022/12/08 05:30:57;;;;;;;25.65;19.15;;;19.30;62.00;;;;;;5059644;27;92341;-87
2022/12/08 05:33:23;;;;;;;23.77;18.52;;;19.30;62.10;;;;;;5059082;27;93361;-84
2022/12/08 05:35:49;;;;;;;22.13;17.27;;;19.30;62.60;;;;;;5059707;27;92175;-85
2022/12/08 05:38:14;;;;;;;24.42;18.83;;;19.30;62.00;;;;;;5058200;27;93756;-85
2022/12/08 05:40:42;;;;;;;22.50;17.90;;;19.30;62.00;;;;;;5058103;27;94124;-86
2022/12/08 05:43:09;;;;;;;24.27;18.30;;;19.30;62.00;;;;;;5060581;27;92412;-86
2022/12/08 05:45:35;;;;;;;22.77;18.10;;;19.30;61.90;;;;;;5057635;27;92624;-83
2022/12/08 05:48:01;;;;;;;23.48;18.25;;;19.30;61.90;;;;;;5060127;27;93538;-86
2022/12/08 05:50:26;;;;;;;23.98;18.85;;;19.30;61.90;;;;;;5056866;27;92772;-86
2022/12/08 05:52:52;;;;;;;23.52;18.65;;;19.30;61.90;;;;;;5059122;27;92348;-83
2022/12/08 05:55:17;;;;;;;24.40;18.63;;;19.30;61.80;;;;;;5059661;27;92474;-85
2022/12/08 05:57:43;;;;;;;24.67;18.35;;;19.30;61.70;;;;;;5056737;27;94081;-85
2022/12/08 06:00:09;;;;;;;21.92;17.15;;;19.30;61.70;;;;;;5059782;27;94496;-86
2022/12/08 06:02:35;;;;;;;22.17;17.25;;;19.30;61.70;;;;;;5059538;27;92405;-85
2022/12/08 06:05:00;;;;;;;21.40;16.42;;;19.30;61.70;;;;;;5060189;27;92658;-85
2022/12/08 06:07:26;;;;;;;23.20;18.27;;;19.30;61.80;;;;;;5060447;27;92692;-86
2022/12/08 06:09:52;;;;;;;25.10;18.15;;;19.30;61.60;;;;;;5044610;27;93602;-85
2022/12/08 06:12:17;;;;;;;24.75;18.08;;;19.30;61.50;;;;;;5058269;27;92566;-85
2022/12/08 06:14:43;;;;;;;22.20;17.15;;;19.30;61.50;;;;;;5059957;27;91855;-85
2022/12/08 06:17:13;;;;;;;23.10;17.58;;;19.20;61.70;;;;;;5058352;27;93076;-87
2022/12/08 06:19:39;;;;;;;24.13;17.73;;;19.20;61.70;;;;;;5049358;27;93187;-85
2022/12/08 06:22:04;;;;;;;22.92;16.33;;;19.20;61.70;;;;;;5057599;27;92954;-86
2022/12/08 06:24:30;;;;;;;23.05;17.30;;;19.20;61.70;;;;;;5059586;27;92809;-85
2022/12/08 06:26:56;;;;;;;22.55;16.25;;;19.20;61.80;;;;;;5057630;27;93458;-87
2022/12/08 06:29:21;;;;;;;22.85;17.58;;;19.20;61.70;;;;;;5058059;27;92946;-86
2022/12/08 06:31:47;;;;;;;21.98;15.93;;;19.20;61.60;;;;;;5059261;27;92027;-86
2022/12/08 06:34:13;;;;;;;21.60;16.45;;;19.20;61.60;;;;;;5058105;27;92641;-85
2022/12/08 06:36:38;;;;;;;20.50;16.17;;;19.20;61.40;;;;;;5058795;27;93029;-84
2022/12/08 06:39:04;;;;;;;20.92;16.98;;;19.30;61.30;;;;;;5058233;27;94583;-84
2022/12/08 06:41:29;;;;;;;22.02;16.30;;;19.20;61.30;;;;;;5057044;27;92018;-85
2022/12/08 06:43:56;;;;;;;21.65;16.75;;;19.20;61.60;;;;;;5059156;27;92067;-86
2022/12/08 06:46:22;;;;;;;20.75;16.10;;;19.20;61.70;;;;;;5057717;27;94659;-85
2022/12/08 06:48:49;;;;;;;21.33;16.52;;;19.20;61.30;;;;;;5056473;27;94718;-85
2022/12/08 06:51:18;;;;;;;21.48;15.85;;;19.10;61.50;;;;;;5056549;27;93034;-84
2022/12/08 06:53:44;;;;;;;20.97;16.17;;;19.10;62.20;;;;;;5057324;27;92684;-85
2022/12/08 06:56:11;;;;;;;19.05;15.27;;;19.10;61.40;;;;;;5055885;27;93391;-85
2022/12/08 06:58:37;;;;;;;22.63;15.23;;;19.20;61.40;;;;;;5057033;27;93251;-85
2022/12/08 07:01:07;;;;;;;21.33;15.88;;;19.20;61.40;;;;;;5058133;27;92520;-84
2022/12/08 07:03:37;;;;;;;21.02;16.23;;;19.20;61.20;;;;;;5054668;27;91762;-85
2022/12/08 07:06:03;;;;;;;18.80;15.38;;;19.20;61.50;;;;;;5055687;27;93216;-85
2022/12/08 07:08:29;;;;;;;17.65;13.73;;;19.40;61.20;;;;;;5039522;27;94804;-83
2022/12/08 07:10:54;;;;;;;19.50;14.15;;;19.50;60.70;;;;;;5046220;27;93278;-84
2022/12/08 07:13:20;;;;;;;18.25;13.38;;;19.70;60.30;;;;;;5052720;27;92059;-85
2022/12/08 07:15:46;;;;;;;19.15;14.15;;;19.80;59.90;;;;;;5056675;27;93260;-84
2022/12/08 07:18:11;;;;;;;21.25;12.50;;;20.00;59.30;;;;;;5057490;27;93878;-84
2022/12/08 07:20:37;;;;;;;20.98;12.77;;;20.10;59.40;;;;;;5066909;27;92074;-84
2022/12/08 07:23:03;;;;;;;21.88;11.65;;;20.30;57.70;;;;;;5057338;27;92560;-86
2022/12/08 07:25:28;;;;;;;21.35;12.10;;;20.40;52.90;;;;;;5057985;27;92987;-86
2022/12/08 07:27:54;;;;;;;17.60;11.07;;;20.50;54.90;;;;;;5058277;27;92935;-86
2022/12/08 07:30:19;;;;;;;20.33;12.50;;;20.60;56.40;;;;;;5058186;27;92697;-86
2022/12/08 07:32:45;;;;;;;18.27;12.27;;;20.80;56.80;;;;;;5056605;27;92189;-87
2022/12/08 07:35:11;;;;;;;21.02;11.88;;;20.90;57.10;;;;;;5038663;27;97396;-86
2022/12/08 07:37:37;;;;;;;24.65;11.85;;;21.00;57.20;;;;;;5058524;27;94754;-86
2022/12/08 07:40:07;;;;;;;55.38;18.08;;;21.10;57.30;;;;;;5056246;27;92566;-86
2022/12/08 07:42:33;;;;;;;48.80;16.92;;;21.10;57.10;;;;;;5057578;27;92246;-85
2022/12/08 07:44:59;;;;;;;31.88;14.10;;;21.10;57.00;;;;;;5039108;27;97303;-83
2022/12/08 07:47:25;;;;;;;27.48;13.23;;;21.10;57.30;;;;;;5040307;27;96241;-85
2022/12/08 07:50:01;;;;;;;28.48;13.00;;;21.10;57.50;;;;;;5058924;27;92827;-86
2022/12/08 07:52:26;;;;;;;26.38;13.55;;;21.10;58.20;;;;;;5059819;27;91570;-87
2022/12/08 07:54:52;;;;;;;25.70;13.00;;;21.10;57.60;;;;;;5057139;27;93151;-86
2022/12/08 07:57:18;;;;;;;27.27;12.90;;;21.10;57.90;;;;;;5057959;27;92520;-85
2022/12/08 07:59:43;;;;;;;24.13;12.23;;;21.20;58.10;;;;;;5058479;27;93049;-84
2022/12/08 08:02:16;;;;;;;24.02;11.40;;;21.20;58.00;;;;;;5058131;27;92765;-85
2022/12/08 08:04:41;;;;;;;24.40;12.27;;;21.30;58.00;;;;;;5057641;27;93122;-87
2022/12/08 08:07:07;;;;;;;27.60;11.75;;;21.30;58.20;;;;;;5059837;27;93525;-84
2022/12/08 08:09:33;;;;;;;25.27;11.70;;;21.40;58.00;;;;;;5057464;27;92752;-85
2022/12/08 08:11:59;;;;;;;21.60;10.45;;;21.50;58.00;;;;;;5056862;27;92570;-84
2022/12/08 08:14:24;;;;;;;29.38;11.57;;;21.50;57.70;;;;;;5055040;27;94310;-85
2022/12/08 08:16:50;;;;;;;26.60;11.25;;;21.50;57.70;;;;;;5056586;27;93258;-84
2022/12/08 08:19:15;;;;;;;31.45;12.57;;;21.60;57.60;;;;;;5054329;27;91952;-86
2022/12/08 08:21:41;;;;;;;21.83;10.82;;;21.60;57.80;;;;;;5055994;27;94157;-85
2022/12/08 08:24:07;;;;;;;23.67;11.35;;;21.60;57.80;;;;;;5055169;27;94086;-85
2022/12/08 08:26:32;;;;;;;24.95;10.68;;;21.60;57.90;;;;;;5054854;27;93202;-85
2022/12/08 08:28:58;;;;;;;22.05;10.73;;;21.60;58.00;;;;;;5036661;27;92343;-85
2022/12/08 08:31:36;;;;;;;19.75;10.70;;;21.60;58.00;;;;;;5054799;27;92003;-85
2022/12/08 08:34:04;;;;;;;19.17;10.18;;;21.60;58.20;;;;;;5054750;27;98315;-85
2022/12/08 08:36:31;;;;;;;24.52;11.57;;;21.60;58.30;;;;;;5055128;27;92942;-84
2022/12/08 08:38:56;;;;;;;20.00;10.85;;;21.60;58.40;;;;;;5056083;27;92309;-85
2022/12/08 08:41:22;;;;;;;20.48;10.85;;;21.70;58.50;;;;;;5055588;27;91227;-84
2022/12/08 08:43:47;;;;;;;18.33;10.05;;;21.70;58.60;;;;;;5053959;27;92693;-84
2022/12/08 08:46:13;;;;;;;21.08;10.02;;;21.80;58.30;;;;;;5035544;27;94315;-86
2022/12/08 08:48:39;;;;;;;20.10;9.93;;;21.80;58.70;;;;;;5054439;27;93203;-85
2022/12/08 08:51:10;;;;;;;18.25;9.65;;;21.80;58.80;;;;;;5053933;27;92139;-86
2022/12/08 08:53:36;;;;;;;21.05;9.88;;;21.80;58.70;;;;;;5056285;27;95659;-85
2022/12/08 08:56:04;;;;;;;27.98;10.75;;;21.80;58.80;;;;;;4990377;28;95925;-86
2022/12/08 08:58:29;;;;;;;19.70;9.68;;;21.80;58.90;;;;;;4992702;28;92515;-84
2022/12/08 09:00:55;;;;;;;18.88;9.32;;;21.80;59.00;;;;;;4945285;28;92629;-84
2022/12/08 09:03:21;;;;;;;17.45;9.40;;;21.80;59.20;;;;;;4995851;28;93471;-85
2022/12/08 09:05:46;;;;;;;20.02;9.85;;;21.80;59.00;;;;;;4993725;28;92864;-85
2022/12/08 09:08:12;;;;;;;22.15;9.43;;;21.80;59.20;;;;;;4992849;28;92668;-87
2022/12/08 09:10:40;;;;;;;18.55;8.85;;;21.80;58.90;;;;;;4994301;28;93020;-85
2022/12/08 09:13:06;;;;;;;19.80;9.83;;;21.80;58.90;;;;;;4993876;28;95013;-85
2022/12/08 09:15:31;;;;;;;17.67;9.10;;;21.80;59.30;;;;;;4994437;28;94446;-87
2022/12/08 09:17:57;;;;;;;25.30;10.30;;;21.80;59.20;;;;;;4993375;28;92355;-86
2022/12/08 09:20:23;;;;;;;21.83;10.35;;;21.80;58.00;;;;;;4993113;28;92542;-86
2022/12/08 09:22:48;;;;;;;23.67;10.15;;;21.70;57.70;;;;;;4992147;28;93944;-87
2022/12/08 09:25:14;;;;;;;27.88;10.40;;;21.70;58.20;;;;;;4992924;28;93279;-85
2022/12/08 09:27:39;;;;;;;22.15;9.57;;;21.70;58.20;;;;;;5037352;27;92736;-85
2022/12/08 09:30:06;;;;;;;18.60;9.43;;;21.70;58.60;;;;;;5057035;27;91873;-86
2022/12/08 09:32:31;;;;;;;17.15;8.80;;;21.70;58.70;;;;;;5055139;27;93522;-86
2022/12/08 09:34:57;;;;;;;24.98;9.85;;;21.70;58.70;;;;;;5053269;27;92828;-87
2022/12/08 09:37:22;;;;;;;17.42;8.60;;;21.80;57.50;;;;;;5055034;27;93775;-86
2022/12/08 09:39:48;;;;;;;16.45;8.48;;;21.80;58.30;;;;;;5057128;27;92623;-86
2022/12/08 09:42:28;;;;;;;24.60;9.13;;;21.80;58.60;;;;;;5054033;27;93998;-86
2022/12/08 09:45:18;;;;;;;19.42;8.77;;;21.80;58.60;;;;;;5054801;27;92891;-85
2022/12/08 09:47:51;;;;;;;;;;;21.90;58.80;;;;;;5056920;27;92633;-88
2022/12/08 09:50:53;;;;;;;16.45;8.18;;;21.90;58.60;;;;;;5039235;27;92111;-85
2022/12/08 09:53:28;;;;;;;20.30;8.52;;;21.90;58.60;;;;;;5052672;27;93790;-86
2022/12/08 09:56:05;;;;;;;18.88;8.23;;;21.90;58.90;;;;;;5053445;27;92408;-85
2022/12/08 09:58:47;;;;;;;17.80;8.27;;;21.90;58.80;;;;;;5058399;27;92101;-86
2022/12/08 10:01:14;;;;;;;22.50;7.97;;;22.00;58.70;;;;;;5056432;27;92626;-87
2022/12/08 10:03:40;;;;;;;16.83;8.20;;;22.00;58.00;;;;;;5048486;27;93998;-87
2022/12/08 10:06:18;;;;;;;14.70;7.18;;;22.00;58.40;;;;;;5058118;27;95132;-85
2022/12/08 10:08:52;;;;;;;20.85;8.15;;;22.00;58.30;;;;;;5058252;27;92610;-85
2022/12/08 10:11:26;;;;;;;20.33;8.07;;;22.00;58.70;;;;;;5057753;27;92159;-85
2022/12/08 10:14:10;;;;;;;18.73;8.35;;;22.00;58.50;;;;;;5058393;27;93075;-87
2022/12/08 10:16:40;;;;;;;20.63;8.23;;;22.10;58.60;;;;;;5060143;27;93325;-86
2022/12/08 10:19:20;;;;;;;16.40;7.07;;;22.10;58.60;;;;;;5060652;27;92507;-86
2022/12/08 10:21:46;;;;;;;17.65;8.30;;;22.20;58.50;;;;;;5059049;27;91880;-86
2022/12/08 10:24:24;;;;;;;25.98;8.48;;;22.20;58.90;;;;;;5058236;27;93387;-87
2022/12/08 10:26:50;;;;;;;30.52;8.02;;;22.10;58.60;;;;;;5059150;27;92318;-86
2022/12/08 10:29:16;;;;;;;19.60;9.85;;;22.20;58.60;;;;;;5058584;27;93125;-85
2022/12/08 10:31:42;;;;;;;24.52;10.15;;;22.10;57.80;;;;;;5059740;27;92937;-86
2022/12/08 10:34:24;;;;;;;21.60;8.70;;;22.00;56.30;;;;;;5060009;27;93494;-87
2022/12/08 10:36:57;;;;;;;18.63;9.73;;;22.00;56.10;;;;;;5059731;27;93167;-87
2022/12/08 10:39:36;;;;;;;18.83;9.55;;;21.90;55.10;;;;;;5060951;27;92014;-87
2022/12/08 10:42:16;;;;;;;15.15;8.25;;;21.90;54.20;;;;;;5060930;27;92474;-85
2022/12/08 10:45:14;;;;;;;23.73;10.32;;;21.80;53.90;;;;;;5058555;27;93066;-85
2022/12/08 10:47:41;;;;;;;50.15;14.32;;;21.90;54.60;;;;;;5038741;27;94808;-86
2022/12/08 10:50:20;;;;;;;36.13;12.07;;;21.90;53.90;;;;;;5038669;27;92318;-87
2022/12/08 10:52:57;;;;;;;32.72;11.95;;;22.00;54.00;;;;;;5058615;27;92120;-86
2022/12/08 10:55:23;;;;;;;34.35;11.38;;;22.00;54.20;;;;;;5058185;27;94268;-86
2022/12/08 10:57:49;;;;;;;24.33;10.02;;;22.10;54.60;;;;;;5058113;27;94291;-86
2022/12/08 11:00:18;;;;;;;27.42;10.35;;;22.10;54.30;;;;;;5056000;27;92739;-86
2022/12/08 11:02:57;;;;;;;31.60;9.90;;;22.10;54.60;;;;;;5057242;27;92665;-85
2022/12/08 11:05:31;;;;;;;29.63;10.65;;;22.10;55.10;;;;;;5056882;27;92866;-85
2022/12/08 11:07:57;;;;;;;25.63;9.68;;;22.10;55.20;;;;;;5057577;27;93522;-85
2022/12/08 11:10:41;;;;;;;34.40;9.57;;;22.20;55.50;;;;;;5057471;27;92088;-85
2022/12/08 11:13:18;;;;;;;30.58;10.07;;;22.20;55.60;;;;;;5058823;27;92097;-85
2022/12/08 11:15:45;;;;;;;26.75;10.20;;;22.20;55.60;;;;;;5056001;27;93165;-85
2022/12/08 11:18:42;;;;;;;24.58;9.50;;;22.20;55.90;;;;;;5010245;28;93053;-87
2022/12/08 11:21:15;;;;;;;21.95;9.63;;;22.20;55.90;;;;;;4924236;28;93927;-84
2022/12/08 11:23:45;;;;;;;28.10;10.00;;;22.20;56.10;;;;;;4924574;28;92356;-86
2022/12/08 11:26:24;;;;;;;21.40;9.23;;;22.20;55.40;;;;;;4923667;28;92585;-86
2022/12/08 11:28:50;;;;;;;;;;;22.20;54.90;;;;;;4925086;28;93909;-87
2022/12/08 11:31:26;;;;;;;25.02;9.70;;;22.20;54.90;;;;;;4927817;28;92402;-86
2022/12/08 11:33:52;;;;;;;26.90;9.18;;;22.20;55.00;;;;;;4924843;28;92309;-88
2022/12/08 11:36:21;;;;;;;23.13;8.75;;;22.20;55.70;;;;;;4924861;28;93362;-84
2022/12/08 11:38:50;;;;;;;20.77;8.77;;;22.20;56.20;;;;;;4925501;28;93386;-86
2022/12/08 11:41:20;;;;;;;19.10;8.48;;;22.30;56.10;;;;;;4925735;28;92693;-84
2022/12/08 11:44:05;;;;;;;23.73;8.43;;;22.20;55.60;;;;;;4924867;28;92215;-85
2022/12/08 11:46:45;;;;;;;27.27;8.35;;;22.30;56.00;;;;;;4924480;28;94295;-87
2022/12/08 11:49:13;;;;;;;21.98;8.05;;;22.20;55.10;;;;;;4943768;28;99870;-86
2022/12/08 11:52:21;;;;;;;22.38;8.40;;;22.30;54.70;;;;;;4964214;28;92545;-87
2022/12/08 11:55:01;;;;;;;26.98;9.95;;;22.30;54.00;;;;;;4873035;28;92844;-87
2022/12/08 11:57:28;;;;;;;27.00;9.43;;;22.30;53.80;;;;;;4902594;28;93013;-86
2022/12/08 11:59:56;;;;;;;21.27;8.32;;;22.30;54.00;;;;;;4941708;28;92820;-87
2022/12/08 12:02:27;;;;;;;21.52;7.97;;;22.30;53.40;;;;;;4942859;28;92106;-87
2022/12/08 12:04:55;;;;;;;24.98;8.07;;;22.30;53.50;;;;;;4942913;28;91673;-86
2022/12/08 12:07:58;;;;;;;18.90;8.25;;;22.30;54.50;;;;;;4941083;28;93964;-85
2022/12/08 12:10:30;;;;;;;23.10;8.35;;;22.40;55.00;;;;;;4941499;28;98173;-86
2022/12/08 12:13:43;;;;;;;18.70;7.82;;;22.30;55.30;;;;;;4940796;28;94519;-86
2022/12/08 12:16:22;;;;;;;19.42;8.20;;;22.30;55.50;;;;;;4867243;28;92260;-87
2022/12/08 12:19:15;;;;;;;22.15;8.02;;;22.40;55.10;;;;;;4869378;28;93533;-86
2022/12/08 12:21:54;;;;;;;15.02;7.07;;;22.50;55.40;;;;;;4801868;29;92919;-87
2022/12/08 12:24:25;;;;;;;20.70;7.40;;;22.50;55.50;;;;;;4800074;29;92178;-87
2022/12/08 12:26:56;;;;;;;14.15;6.40;;;22.40;55.30;;;;;;4847901;28;92195;-88
2022/12/08 12:29:25;;;;;;;20.70;6.88;;;22.40;55.30;;;;;;4848895;28;93600;-88
2022/12/08 12:32:03;;;;;;;19.80;7.25;;;22.40;55.50;;;;;;4849491;29;93402;-88
2022/12/08 12:34:33;;;;;;;19.73;7.60;;;22.40;55.30;;;;;;4849565;28;92475;-87
2022/12/08 12:37:09;;;;;;;16.58;6.90;;;22.50;55.70;;;;;;4849299;29;93044;-88
2022/12/08 12:40:01;;;;;;;16.95;6.63;;;22.50;55.40;;;;;;4848594;29;94487;-88
2022/12/08 12:42:41;;;;;;;13.63;6.13;;;22.50;55.90;;;;;;4849401;29;94074;-88
2022/12/08 12:45:11;;;;;;;16.40;6.03;;;22.40;55.60;;;;;;4849916;29;92512;-88
2022/12/08 12:48:03;;;;;;;16.40;6.20;;;22.40;55.40;;;;;;4847065;28;92971;-87